KLKV/LKV METAR and TAF weather

Enter ICAO airport designator
Station Type Date Time Source
KLKV METAR 2020/11/27 14:53 UTC NOAA

KLKV 271453Z AUTO 36005KT 10SM CLR M11/M12 A3037 RMK AO2 SLP344 T11061122 51003 FZRANO $


Station Type Date Time Source
KLKV Decoded METAR 2020/11/27 14:53 UTC NOAA

Lakeview, Lake County Airport, OR, United States (KLKV) 42-10N 120-24W
Nov 27, 2020 - 09:53 AM EST / 2020.11.27 1453 UTC
Wind: from the N (360 degrees) at 6 MPH (5 KT):0
Visibility: 10 mile(s):0
Sky conditions: clear
Temperature: 12.9 F (-10.6 C)
Windchill: 3 F (-16 C):1
Dew Point: 10.0 F (-12.2 C)
Relative Humidity: 87%
Pressure (altimeter): 30.37 in. Hg (1028 hPa)
Pressure tendency: 0.01 inches (0.3 hPa) higher than three hours ago
ob: KLKV 271453Z AUTO 36005KT 10SM CLR M11/M12 A3037 RMK AO2 SLP344 T11061122 51003 FZRANO
cycle: 15

Station Type Date Time Source
KLKV TAF UTC NOAA

Error!

Example: see airport list